createdAt,value
2022-10-17T00:01:29.459Z,99336.75
2022-10-17T00:03:56.077Z,99344.50
2022-10-17T00:06:22.695Z,99340.88
2022-10-17T00:08:49.309Z,99332.94
2022-10-17T00:11:20.630Z,99327.72
2022-10-17T00:13:49.041Z,99334.59
2022-10-17T00:16:23.681Z,99330.25
2022-10-17T00:18:52.054Z,99333.88
2022-10-17T00:21:21.080Z,99332.03
2022-10-17T00:23:49.100Z,99336.38
2022-10-17T00:26:17.890Z,99344.22
2022-10-17T00:28:50.746Z,99354.75
2022-10-17T00:31:20.726Z,99350.34
2022-10-17T00:33:49.777Z,99349.41
2022-10-17T00:36:19.755Z,99346.88
2022-10-17T00:38:48.006Z,99344.22
2022-10-17T00:41:17.087Z,99359.84
2022-10-17T00:46:30.634Z,99359.09
2022-10-17T00:48:59.031Z,99362.25
2022-10-17T00:51:33.738Z,99360.16
2022-10-17T00:54:01.723Z,99369.75
2022-10-17T00:56:28.575Z,99363.66
2022-10-17T00:58:55.913Z,99363.75
2022-10-17T01:01:22.579Z,99361.09
2022-10-17T01:03:49.282Z,99349.81
2022-10-17T01:06:15.893Z,99351.72
2022-10-17T01:08:42.658Z,99364.78
2022-10-17T01:11:27.424Z,99364.91
2022-10-17T01:14:07.773Z,99358.00
2022-10-17T01:16:44.928Z,99351.91
2022-10-17T01:19:43.701Z,99362.63
2022-10-17T01:30:35.368Z,99358.25
2022-10-17T01:36:10.726Z,99361.06
2022-10-17T01:38:47.381Z,99363.66
2022-10-17T01:46:41.445Z,99370.63
2022-10-17T01:49:11.188Z,99373.19
2022-10-17T01:51:47.897Z,99372.34
2022-10-17T01:54:27.963Z,99369.78
2022-10-17T01:57:01.532Z,99362.66
2022-10-17T01:59:38.941Z,99367.88
2022-10-17T02:02:07.428Z,99371.41
2022-10-17T02:04:35.371Z,99368.75
2022-10-17T02:07:11.154Z,99381.72
2022-10-17T02:09:38.534Z,99381.59
2022-10-17T02:17:58.089Z,99391.25
2022-10-17T02:20:40.612Z,99392.84
2022-10-17T02:25:54.071Z,99406.69
2022-10-17T02:33:49.465Z,99412.72
2022-10-17T02:36:21.518Z,99418.81
2022-10-17T02:38:50.571Z,99431.75
2022-10-17T02:41:19.073Z,99417.84
2022-10-17T02:43:48.912Z,99433.50
2022-10-17T02:46:21.237Z,99429.16
2022-10-17T02:48:53.673Z,99417.94
2022-10-17T02:51:37.085Z,99436.28
2022-10-17T02:54:28.303Z,99437.28
2022-10-17T02:57:02.927Z,99442.41
2022-10-17T03:02:06.133Z,99443.25
2022-10-17T03:04:33.591Z,99440.59
2022-10-17T03:07:00.333Z,99438.81
2022-10-17T03:09:27.387Z,99445.81
2022-10-17T03:11:54.016Z,99450.16
2022-10-17T03:14:20.579Z,99449.22
2022-10-17T03:16:47.129Z,99439.72
2022-10-17T03:19:13.931Z,99437.09
2022-10-17T03:21:40.577Z,99438.81
2022-10-17T03:24:07.663Z,99441.41
2022-10-17T03:26:34.436Z,99443.13
2022-10-17T03:29:01.028Z,99448.22
2022-10-17T03:31:27.562Z,99448.22
2022-10-17T03:33:54.190Z,99442.09
2022-10-17T03:36:20.990Z,99450.84
2022-10-17T03:38:48.334Z,99459.50
2022-10-17T03:41:15.053Z,99459.53
2022-10-17T03:43:41.614Z,99459.59
2022-10-17T03:46:08.261Z,99469.06
2022-10-17T03:48:35.065Z,99456.81
2022-10-17T03:51:05.085Z,99452.41
2022-10-17T03:53:32.384Z,99461.09
2022-10-17T03:56:10.094Z,99467.19
2022-10-17T03:58:36.805Z,99473.22
2022-10-17T04:01:06.257Z,99478.34
2022-10-17T04:03:33.229Z,99471.41
2022-10-17T04:06:01.055Z,99485.38
2022-10-17T04:08:28.426Z,99478.44
2022-10-17T04:11:05.132Z,99474.41
2022-10-17T04:13:32.785Z,99481.44
2022-10-17T04:16:02.559Z,99499.88
2022-10-17T04:18:29.316Z,99496.72
2022-10-17T04:20:55.899Z,99495.28
2022-10-17T04:23:23.007Z,99496.53
2022-10-17T04:25:49.572Z,99490.69
2022-10-17T04:28:16.250Z,99495.31
2022-10-17T04:30:45.134Z,99492.84
2022-10-17T04:33:12.230Z,99491.28
2022-10-17T04:35:38.869Z,99489.72
2022-10-17T04:38:05.403Z,99496.91
2022-10-17T04:40:31.989Z,99489.28
2022-10-17T04:42:58.538Z,99501.53
2022-10-17T04:45:25.093Z,99512.94
2022-10-17T04:47:51.625Z,99502.59
2022-10-17T04:50:18.460Z,99506.16
2022-10-17T04:52:45.165Z,99512.38
2022-10-17T04:55:11.719Z,99515.03
2022-10-17T04:57:38.312Z,99522.91
2022-10-17T05:00:05.380Z,99532.44
2022-10-17T05:02:32.141Z,99513.56
2022-10-17T05:04:58.853Z,99529.13
2022-10-17T05:07:25.446Z,99519.59
2022-10-17T05:09:51.982Z,99515.34
2022-10-17T05:12:18.613Z,99513.63
2022-10-17T05:14:45.229Z,99531.03
2022-10-17T05:17:11.841Z,99536.28
2022-10-17T05:19:38.412Z,99552.78
2022-10-17T05:22:04.957Z,99546.69
2022-10-17T05:24:31.478Z,99557.16
2022-10-17T05:26:58.088Z,99566.69
2022-10-17T05:29:24.681Z,99566.69
2022-10-17T05:31:51.328Z,99567.56
2022-10-17T05:34:17.964Z,99565.81
2022-10-17T05:36:44.603Z,99565.81
2022-10-17T05:39:14.850Z,99566.69
2022-10-17T05:41:41.457Z,99574.53
2022-10-17T05:44:08.058Z,99587.53
2022-10-17T05:46:34.644Z,99588.44
2022-10-17T05:49:01.153Z,99591.94
2022-10-17T05:51:27.790Z,99608.44
2022-10-17T05:53:54.442Z,99605.84
2022-10-17T05:56:20.943Z,99609.38
2022-10-17T05:58:50.392Z,99618.09
2022-10-17T06:01:18.898Z,99618.16
2022-10-17T06:03:45.468Z,99615.56
2022-10-17T06:06:14.041Z,99618.16
2022-10-17T06:08:40.699Z,99626.91
2022-10-17T06:11:10.027Z,99627.81
2022-10-17T06:13:37.371Z,99636.75
2022-10-17T06:16:03.993Z,99651.34
2022-10-17T06:18:30.798Z,99665.22
2022-10-17T06:21:07.806Z,99673.03
2022-10-17T06:23:34.712Z,99677.31
2022-10-17T06:26:02.954Z,99677.31
2022-10-17T06:28:30.129Z,99684.22
2022-10-17T06:30:57.250Z,99685.97
2022-10-17T06:33:23.921Z,99691.16
2022-10-17T06:35:53.469Z,99692.88
2022-10-17T06:38:20.475Z,99704.97
2022-10-17T06:40:47.148Z,99711.88
2022-10-17T06:43:14.096Z,99723.13
2022-10-17T06:45:40.957Z,99729.25
2022-10-17T06:48:08.055Z,99730.94
2022-10-17T06:50:35.093Z,99738.69
2022-10-17T06:53:01.664Z,99736.88
2022-10-17T06:55:28.266Z,99739.44
2022-10-17T06:57:56.433Z,99746.31
2022-10-17T07:00:23.589Z,99748.00
2022-10-17T07:02:50.646Z,99751.44
2022-10-17T07:05:19.642Z,99754.84
2022-10-17T07:07:49.601Z,99765.22
2022-10-17T07:10:17.628Z,99769.50
2022-10-17T07:12:46.027Z,99772.03
2022-10-17T07:15:13.163Z,99778.09
2022-10-17T07:17:39.845Z,99780.66
2022-10-17T07:20:07.188Z,99789.28
2022-10-17T07:22:33.830Z,99797.94
2022-10-17T07:25:00.385Z,99803.13
2022-10-17T07:27:27.292Z,99817.84
2022-10-17T07:29:54.174Z,99824.75
2022-10-17T07:32:21.121Z,99828.25
2022-10-17T07:34:47.717Z,99829.97
2022-10-17T07:37:14.399Z,99837.75
2022-10-17T07:39:41.000Z,99849.75
2022-10-17T07:42:07.863Z,99853.16
2022-10-17T07:44:35.582Z,99859.25
2022-10-17T07:47:02.407Z,99860.16
2022-10-17T07:49:29.476Z,99873.19
2022-10-17T07:51:56.083Z,99880.13
2022-10-17T07:54:23.284Z,99882.72
2022-10-17T07:56:50.912Z,99890.53
2022-10-17T07:59:19.384Z,99892.16
2022-10-17T08:01:46.181Z,99902.53
2022-10-17T08:04:13.124Z,99903.28
2022-10-17T08:06:39.962Z,99902.31
2022-10-17T08:09:06.726Z,99913.50
2022-10-17T08:11:33.459Z,99915.91
2022-10-17T08:14:00.135Z,99921.78
2022-10-17T08:16:26.742Z,99926.72
2022-10-17T08:18:53.911Z,99926.44
2022-10-17T08:21:20.941Z,99932.16
2022-10-17T08:23:47.565Z,99931.81
2022-10-17T08:26:17.294Z,99942.63
2022-10-17T08:28:44.451Z,99945.66
2022-10-17T08:31:15.088Z,99940.84
2022-10-17T08:33:42.275Z,99942.69
2022-10-17T08:36:09.735Z,99937.97
2022-10-17T08:38:38.472Z,99941.91
2022-10-17T08:46:47.005Z,99943.53
2022-10-17T08:49:23.349Z,99949.84
2022-10-17T08:51:58.081Z,99950.75
2022-10-17T08:54:43.005Z,99950.47
2022-10-17T08:57:14.103Z,99955.53
2022-10-17T08:59:42.115Z,99965.56
2022-10-17T09:05:30.504Z,99989.31
2022-10-17T09:08:09.209Z,99995.84
2022-10-17T09:13:46.546Z,99993.63
2022-10-17T09:19:02.028Z,100004.50
2022-10-17T09:24:15.777Z,100020.50
2022-10-17T09:26:45.547Z,100027.66
2022-10-17T09:29:20.661Z,100036.78
2022-10-17T09:32:10.339Z,100044.53
2022-10-17T09:34:37.023Z,100052.13
2022-10-17T09:37:03.765Z,100060.31
2022-10-17T09:39:33.020Z,100060.78
2022-10-17T09:42:01.723Z,100059.50
2022-10-17T09:49:42.887Z,100081.41
2022-10-17T09:52:18.630Z,100087.22
2022-10-17T09:54:48.457Z,100086.75
2022-10-17T09:57:17.091Z,100102.50
2022-10-17T10:02:24.739Z,100101.06
2022-10-17T10:07:31.031Z,100122.84
2022-10-17T10:09:59.117Z,100106.28
2022-10-17T10:12:29.973Z,100119.75
2022-10-17T10:14:57.777Z,100122.78
2022-10-17T10:17:41.979Z,100139.91
2022-10-17T10:25:56.337Z,100151.06
2022-10-17T10:28:27.138Z,100153.13
2022-10-17T10:30:55.580Z,100149.19
2022-10-17T10:33:25.787Z,100167.97
2022-10-17T10:35:57.387Z,100169.78
2022-10-17T10:38:24.716Z,100180.97
2022-10-17T10:40:56.018Z,100183.44
2022-10-17T10:43:46.727Z,100184.09
2022-10-17T10:54:32.004Z,100189.25
2022-10-17T10:57:03.490Z,100180.69
2022-10-17T11:05:19.527Z,100194.72
2022-10-17T11:07:53.510Z,100215.19
2022-10-17T11:10:35.786Z,100213.13
2022-10-17T11:15:51.638Z,100214.84
2022-10-17T11:20:58.564Z,100218.22
2022-10-17T11:26:11.388Z,100215.47
2022-10-17T11:28:38.110Z,100221.94
2022-10-17T11:31:11.694Z,100237.06
2022-10-17T11:36:39.669Z,100234.91
2022-10-17T11:39:14.704Z,100247.19
2022-10-17T11:42:07.117Z,100242.91
2022-10-17T11:44:37.271Z,100239.59
2022-10-17T11:52:57.298Z,100268.00
2022-10-17T11:55:27.900Z,100275.25
2022-10-17T12:09:12.370Z,100282.09
2022-10-17T12:25:35.787Z,100279.75
2022-10-17T12:30:56.690Z,100275.63
2022-10-17T12:49:38.287Z,100276.78
2022-10-17T12:52:27.469Z,100305.03
2022-10-17T13:00:20.147Z,100318.56
2022-10-17T13:02:49.014Z,100317.34
2022-10-17T13:05:27.112Z,100307.41
2022-10-17T13:07:55.440Z,100317.34
2022-10-17T13:13:04.501Z,100321.63
2022-10-17T13:15:31.972Z,100323.47
2022-10-17T13:18:00.647Z,100337.88
2022-10-17T13:20:31.585Z,100349.03
2022-10-17T13:22:59.208Z,100341.81
2022-10-17T13:25:27.412Z,100341.31
2022-10-17T13:28:05.678Z,100337.28
2022-10-17T13:30:37.152Z,100336.50
2022-10-17T13:33:04.244Z,100327.00
2022-10-17T13:38:28.497Z,100326.50
2022-10-17T13:41:01.970Z,100331.84
2022-10-17T13:43:43.141Z,100336.19
2022-10-17T13:46:36.932Z,100352.84
2022-10-17T13:49:32.372Z,100360.22
2022-10-17T13:52:00.768Z,100368.09
2022-10-17T13:59:58.979Z,100372.94
2022-10-17T14:02:29.234Z,100382.59
2022-10-17T14:10:21.808Z,100396.75
2022-10-17T14:12:51.066Z,100392.47
2022-10-17T14:15:19.138Z,100390.03
2022-10-17T14:17:46.934Z,100391.03
2022-10-17T14:29:20.698Z,100399.47
2022-10-17T14:31:50.773Z,100393.28
2022-10-17T14:34:24.518Z,100404.75
2022-10-17T14:36:53.030Z,100415.34
2022-10-17T14:39:23.473Z,100425.03
2022-10-17T14:41:51.708Z,100429.53
2022-10-17T14:44:28.747Z,100448.00
2022-10-17T14:47:18.201Z,100447.16
2022-10-17T14:49:51.980Z,100442.97
2022-10-17T14:54:53.971Z,100441.34
2022-10-17T15:00:00.105Z,100438.94
2022-10-17T15:02:29.892Z,100444.28
2022-10-17T15:04:57.820Z,100455.78
2022-10-17T15:07:25.134Z,100460.25
2022-10-17T15:09:53.687Z,100468.19
2022-10-17T15:12:25.628Z,100473.53
2022-10-17T15:14:53.126Z,100470.09
2022-10-17T15:17:24.368Z,100482.44
2022-10-17T15:19:51.703Z,100493.03
2022-10-17T15:22:18.747Z,100503.56
2022-10-17T15:24:46.472Z,100508.06
2022-10-17T15:27:18.046Z,100520.34
2022-10-17T15:29:46.082Z,100515.22
2022-10-17T15:32:12.939Z,100512.75
2022-10-17T15:34:39.941Z,100511.97
2022-10-17T15:37:14.573Z,100514.69
2022-10-17T15:39:41.286Z,100520.06
2022-10-17T15:42:12.413Z,100522.78
2022-10-17T15:44:40.622Z,100519.34
2022-10-17T15:47:15.429Z,100519.41
2022-10-17T15:49:42.458Z,100516.06
2022-10-17T15:52:09.274Z,100513.53
2022-10-17T15:54:36.072Z,100520.59
2022-10-17T15:57:02.699Z,100513.78
2022-10-17T15:59:33.554Z,100520.78
2022-10-17T16:02:00.168Z,100518.28
2022-10-17T16:04:27.707Z,100515.75
2022-10-17T16:06:55.116Z,100522.88
2022-10-17T16:09:21.882Z,100522.03
2022-10-17T16:11:48.543Z,100531.72
2022-10-17T16:14:18.248Z,100539.66
2022-10-17T16:16:44.821Z,100537.50
2022-10-17T16:19:11.936Z,100556.38
2022-10-17T16:21:41.089Z,100563.41
2022-10-17T16:24:12.226Z,100556.47
2022-10-17T16:26:39.795Z,100565.28
2022-10-17T16:29:06.491Z,100567.97
2022-10-17T16:31:35.904Z,100570.66
2022-10-17T16:34:04.444Z,100572.44
2022-10-17T16:36:31.145Z,100567.28
2022-10-17T16:38:57.927Z,100563.03
2022-10-17T16:41:40.305Z,100561.44
2022-10-17T16:44:10.625Z,100561.44
2022-10-17T16:46:38.082Z,100560.72
2022-10-17T16:49:05.492Z,100569.50
2022-10-17T16:51:34.046Z,100570.50
2022-10-17T16:54:00.722Z,100574.94
2022-10-17T16:56:32.709Z,100571.53
2022-10-17T16:59:00.715Z,100578.59
2022-10-17T17:01:29.449Z,100585.66
2022-10-17T17:03:56.777Z,100587.44
2022-10-17T17:06:26.754Z,100594.50
2022-10-17T17:08:54.490Z,100593.72
2022-10-17T17:11:23.626Z,100605.09
2022-10-17T17:13:50.349Z,100605.16
2022-10-17T17:16:21.516Z,100608.72
2022-10-17T17:18:51.409Z,100609.66
2022-10-17T17:21:17.959Z,100612.31
2022-10-17T17:23:44.806Z,100613.25
2022-10-17T17:26:14.348Z,100619.41
2022-10-17T17:28:41.894Z,100622.09
2022-10-17T17:31:10.786Z,100623.88
2022-10-17T17:33:39.454Z,100627.44
2022-10-17T17:36:06.745Z,100623.16
2022-10-17T17:38:35.909Z,100629.28
2022-10-17T17:41:03.984Z,100628.50
2022-10-17T17:43:30.888Z,100630.31
2022-10-17T17:45:57.663Z,100633.84
2022-10-17T17:48:24.251Z,100640.81
2022-10-17T17:50:50.936Z,100646.94
2022-10-17T17:53:18.257Z,100667.81
2022-10-17T17:55:45.178Z,100666.13
2022-10-17T17:58:12.632Z,100677.47
2022-10-17T18:00:40.652Z,100676.66
2022-10-17T18:03:07.804Z,100679.28
2022-10-17T18:05:34.446Z,100676.72
2022-10-17T18:08:01.030Z,100683.72
2022-10-17T18:10:29.397Z,100682.88
2022-10-17T18:12:56.053Z,100683.78
2022-10-17T18:15:22.932Z,100685.53
2022-10-17T18:17:49.730Z,100683.84
2022-10-17T18:20:16.347Z,100685.63
2022-10-17T18:22:42.988Z,100695.19
2022-10-17T18:25:09.966Z,100698.72
2022-10-17T18:27:36.783Z,100704.81
2022-10-17T18:30:04.244Z,100706.59
2022-10-17T18:32:32.495Z,100707.50
2022-10-17T18:34:59.269Z,100716.19
2022-10-17T18:37:26.045Z,100722.31
2022-10-17T18:39:55.320Z,100723.22
2022-10-17T18:42:21.959Z,100728.44
2022-10-17T18:44:48.918Z,100737.13
2022-10-17T18:47:16.172Z,100744.97
2022-10-17T18:49:42.992Z,100739.81
2022-10-17T18:52:09.588Z,100747.63
2022-10-17T18:54:36.341Z,100752.81
2022-10-17T18:57:03.022Z,100747.63
2022-10-17T18:59:29.725Z,100753.72
2022-10-17T19:01:56.352Z,100758.09
2022-10-17T19:04:23.873Z,100752.88
2022-10-17T19:06:50.442Z,100755.47
2022-10-17T19:09:17.353Z,100759.81
2022-10-17T19:11:44.159Z,100760.72
2022-10-17T19:14:13.545Z,100772.84
2022-10-17T19:16:43.900Z,100780.69
2022-10-17T19:19:15.058Z,100796.28
2022-10-17T19:21:42.564Z,100799.75
2022-10-17T19:24:13.466Z,100795.44
2022-10-17T19:26:40.750Z,100804.13
2022-10-17T19:29:07.864Z,100806.72
2022-10-17T19:31:39.880Z,100806.72
2022-10-17T19:34:06.459Z,100811.91
2022-10-17T19:36:35.044Z,100807.56
2022-10-17T19:39:05.677Z,100815.38
2022-10-17T19:41:32.990Z,100813.66
2022-10-17T19:44:00.614Z,100820.59
2022-10-17T19:46:28.596Z,100813.66
2022-10-17T19:48:55.511Z,100816.25
2022-10-17T19:51:24.661Z,100814.53
2022-10-17T19:53:52.421Z,100811.94
2022-10-17T19:56:21.120Z,100820.56
2022-10-17T19:58:48.792Z,100815.38
2022-10-17T20:01:19.162Z,100817.09
2022-10-17T20:03:46.543Z,100815.38
2022-10-17T20:06:13.963Z,100813.66
2022-10-17T20:08:40.849Z,100818.84
2022-10-17T20:11:10.570Z,100831.84
2022-10-17T20:13:37.886Z,100825.75
2022-10-17T20:16:06.238Z,100837.91
2022-10-17T20:18:33.725Z,100841.34
2022-10-17T20:21:06.345Z,100834.41
2022-10-17T20:23:33.183Z,100843.97
2022-10-17T20:26:08.649Z,100830.97
2022-10-17T20:28:46.206Z,100830.06
2022-10-17T20:31:13.499Z,100840.44
2022-10-17T20:33:41.527Z,100850.00
2022-10-17T20:36:13.030Z,100849.09
2022-10-17T20:38:39.814Z,100853.44
2022-10-17T20:41:09.431Z,100855.16
2022-10-17T20:43:36.943Z,100861.22
2022-10-17T20:46:21.878Z,100860.38
2022-10-17T20:48:53.434Z,100856.88
2022-10-17T20:51:20.661Z,100861.16
2022-10-17T20:53:48.440Z,100869.84
2022-10-17T20:56:26.937Z,100872.44
2022-10-17T20:58:56.784Z,100878.50
2022-10-17T21:01:24.336Z,100881.94
2022-10-17T21:03:51.310Z,100884.53
2022-10-17T21:06:18.870Z,100890.56
2022-10-17T21:08:47.027Z,100889.72
2022-10-17T21:11:17.255Z,100893.16
2022-10-17T21:13:44.749Z,100893.19
2022-10-17T21:16:17.195Z,100905.28
2022-10-17T21:18:44.547Z,100896.63
2022-10-17T21:23:49.535Z,100908.66
2022-10-17T21:26:17.404Z,100916.44
2022-10-17T21:28:45.615Z,100912.97
2022-10-17T21:31:27.823Z,100912.09
2022-10-17T21:33:57.295Z,100921.63
2022-10-17T21:36:25.469Z,100925.06
2022-10-17T21:38:53.535Z,100926.78
2022-10-17T21:41:23.085Z,100935.44
2022-10-17T21:43:54.321Z,100944.06
2022-10-17T21:46:21.159Z,100941.44
2022-10-17T21:48:48.692Z,100951.78
2022-10-17T21:51:17.401Z,100955.22
2022-10-17T21:53:44.693Z,100956.94
2022-10-17T21:56:19.490Z,100956.88
2022-10-17T21:58:46.802Z,100955.13
2022-10-17T22:01:19.713Z,100955.09
2022-10-17T22:03:48.797Z,100953.31
2022-10-17T22:06:38.530Z,100960.25
2022-10-17T22:09:07.157Z,100958.44
2022-10-17T22:11:35.645Z,100965.38
2022-10-17T22:14:06.389Z,100964.47
2022-10-17T22:16:33.801Z,100968.75
2022-10-17T22:19:05.896Z,100972.22
2022-10-17T22:21:34.460Z,100975.66
2022-10-17T22:24:07.239Z,100976.50
2022-10-17T22:26:36.270Z,100987.66
2022-10-17T22:29:04.430Z,100992.78
2022-10-17T22:31:31.102Z,101000.53
2022-10-17T22:33:57.784Z,101000.47
2022-10-17T22:36:24.460Z,100992.66
2022-10-17T22:38:51.100Z,100991.72
2022-10-17T22:41:17.860Z,100997.72
2022-10-17T22:43:44.568Z,100991.66
2022-10-17T22:46:13.514Z,100997.69
2022-10-17T22:48:40.427Z,101003.69
2022-10-17T22:51:07.428Z,101004.56
2022-10-17T22:53:35.177Z,101018.38
2022-10-17T22:56:05.868Z,101018.34
2022-10-17T22:58:35.686Z,101029.53
2022-10-17T23:01:03.556Z,101040.69
2022-10-17T23:03:31.913Z,101037.19
2022-10-17T23:05:58.881Z,101036.25
2022-10-17T23:08:26.083Z,101037.09
2022-10-17T23:10:52.914Z,101034.47
2022-10-17T23:13:21.262Z,101031.81
2022-10-17T23:15:53.049Z,101036.13
2022-10-17T23:18:19.947Z,101044.75
2022-10-17T23:20:46.598Z,101044.72
2022-10-17T23:23:13.499Z,101043.84
2022-10-17T23:25:40.317Z,101041.25
2022-10-17T23:28:08.797Z,101042.06
2022-10-17T23:30:36.596Z,101050.63
2022-10-17T23:33:04.063Z,101052.28
2022-10-17T23:35:31.077Z,101056.47
2022-10-17T23:37:57.913Z,101059.03
2022-10-17T23:40:24.486Z,101060.69
2022-10-17T23:42:51.108Z,101058.91
2022-10-17T23:45:17.954Z,101059.75
2022-10-17T23:47:44.598Z,101057.97
2022-10-17T23:50:11.222Z,101069.16
2022-10-17T23:52:38.026Z,101070.88
2022-10-17T23:55:05.150Z,101066.53
2022-10-17T23:57:32.180Z,101063.03
2022-10-17T23:59:59.086Z,101059.56
